sensor_id;sensor_type;location;lat;lon;timestamp;pressure;altitude;pressure_sealevel;temperature;humidity
79138;BME280;68544;45.566;10.238;2024-01-07T00:02:22;60991.41;;;-142.84;100.00
79138;BME280;68544;45.566;10.238;2024-01-07T00:04:47;60991.41;;;-142.84;100.00
79138;BME280;68544;45.566;10.238;2024-01-07T00:07:13;60991.41;;;-142.84;100.00
79138;BME280;68544;45.566;10.238;2024-01-07T00:09:38;60991.41;;;-142.84;100.00
79138;BME280;68544;45.566;10.238;2024-01-07T00:12:04;60991.41;;;-142.84;100.00
79138;BME280;68544;45.566;10.238;2024-01-07T00:14:29;60991.41;;;-142.84;100.00
79138;BME280;68544;45.566;10.238;2024-01-07T00:16:54;60991.41;;;-142.84;100.00
79138;BME280;68544;45.566;10.238;2024-01-07T00:19:20;60991.41;;;-142.84;100.00
79138;BME280;68544;45.566;10.238;2024-01-07T00:21:45;60991.41;;;-142.84;100.00
79138;BME280;68544;45.566;10.238;2024-01-07T00:24:11;60991.41;;;-142.84;100.00
79138;BME280;68544;45.566;10.238;2024-01-07T00:26:36;60991.41;;;-142.84;100.00
79138;BME280;68544;45.566;10.238;2024-01-07T00:29:01;60991.41;;;-142.84;100.00
79138;BME280;68544;45.566;10.238;2024-01-07T00:31:27;60991.41;;;-142.84;100.00
79138;BME280;68544;45.566;10.238;2024-01-07T00:33:52;60991.41;;;-142.84;100.00
79138;BME280;68544;45.566;10.238;2024-01-07T00:36:17;60991.41;;;-142.84;100.00
79138;BME280;68544;45.566;10.238;2024-01-07T00:38:43;60991.41;;;-142.84;100.00
79138;BME280;68544;45.566;10.238;2024-01-07T00:41:08;60991.41;;;-142.84;100.00
79138;BME280;68544;45.566;10.238;2024-01-07T00:43:34;60991.41;;;-142.84;100.00
79138;BME280;68544;45.566;10.238;2024-01-07T00:45:59;60991.41;;;-142.84;100.00
79138;BME280;68544;45.566;10.238;2024-01-07T00:48:24;60991.41;;;-142.84;100.00
79138;BME280;68544;45.566;10.238;2024-01-07T00:50:50;60991.41;;;-142.84;100.00
79138;BME280;68544;45.566;10.238;2024-01-07T00:53:15;60991.41;;;-142.84;100.00
79138;BME280;68544;45.566;10.238;2024-01-07T00:55:40;60991.41;;;-142.84;100.00
79138;BME280;68544;45.566;10.238;2024-01-07T00:58:06;60991.41;;;-142.84;100.00
79138;BME280;68544;45.566;10.238;2024-01-07T01:00:31;60991.41;;;-142.84;100.00
79138;BME280;68544;45.566;10.238;2024-01-07T01:02:57;60991.41;;;-142.84;100.00
79138;BME280;68544;45.566;10.238;2024-01-07T01:05:23;60991.41;;;-142.84;100.00
79138;BME280;68544;45.566;10.238;2024-01-07T01:07:48;60991.41;;;-142.84;100.00
79138;BME280;68544;45.566;10.238;2024-01-07T01:10:14;60991.41;;;-142.84;100.00
79138;BME280;68544;45.566;10.238;2024-01-07T01:12:42;60991.41;;;-142.84;100.00
79138;BME280;68544;45.566;10.238;2024-01-07T01:15:08;60991.41;;;-142.84;100.00
79138;BME280;68544;45.566;10.238;2024-01-07T01:17:33;60991.41;;;-142.84;100.00
79138;BME280;68544;45.566;10.238;2024-01-07T01:19:59;60991.41;;;-142.84;100.00
79138;BME280;68544;45.566;10.238;2024-01-07T01:22:24;60991.41;;;-142.84;100.00
79138;BME280;68544;45.566;10.238;2024-01-07T01:24:50;60991.41;;;-142.84;100.00
79138;BME280;68544;45.566;10.238;2024-01-07T01:27:16;60991.41;;;-142.84;100.00
79138;BME280;68544;45.566;10.238;2024-01-07T01:29:41;60991.41;;;-142.84;100.00
79138;BME280;68544;45.566;10.238;2024-01-07T01:32:07;60991.41;;;-142.84;100.00
79138;BME280;68544;45.566;10.238;2024-01-07T01:34:32;60991.41;;;-142.84;100.00
79138;BME280;68544;45.566;10.238;2024-01-07T01:36:58;60991.41;;;-142.84;100.00
79138;BME280;68544;45.566;10.238;2024-01-07T01:39:23;60991.41;;;-142.84;100.00
79138;BME280;68544;45.566;10.238;2024-01-07T01:41:48;60991.41;;;-142.84;100.00
79138;BME280;68544;45.566;10.238;2024-01-07T01:44:14;60991.41;;;-142.84;100.00
79138;BME280;68544;45.566;10.238;2024-01-07T01:46:39;60991.41;;;-142.84;100.00
79138;BME280;68544;45.566;10.238;2024-01-07T01:49:06;60991.41;;;-142.84;100.00
79138;BME280;68544;45.566;10.238;2024-01-07T01:51:32;60991.41;;;-142.84;100.00
79138;BME280;68544;45.566;10.238;2024-01-07T01:53:58;60991.41;;;-142.84;100.00
79138;BME280;68544;45.566;10.238;2024-01-07T01:56:27;60991.41;;;-142.84;100.00
79138;BME280;68544;45.566;10.238;2024-01-07T01:58:53;60991.41;;;-142.84;100.00
79138;BME280;68544;45.566;10.238;2024-01-07T02:01:18;60991.41;;;-142.84;100.00
79138;BME280;68544;45.566;10.238;2024-01-07T02:03:44;60991.41;;;-142.84;100.00
79138;BME280;68544;45.566;10.238;2024-01-07T02:06:10;60991.41;;;-142.84;100.00
79138;BME280;68544;45.566;10.238;2024-01-07T02:08:38;60991.41;;;-142.84;100.00
79138;BME280;68544;45.566;10.238;2024-01-07T02:11:19;60991.41;;;-142.84;100.00
79138;BME280;68544;45.566;10.238;2024-01-07T02:13:45;60991.41;;;-142.84;100.00
79138;BME280;68544;45.566;10.238;2024-01-07T02:16:11;60991.41;;;-142.84;100.00
79138;BME280;68544;45.566;10.238;2024-01-07T02:18:38;60991.41;;;-142.84;100.00
79138;BME280;68544;45.566;10.238;2024-01-07T02:21:06;60991.41;;;-142.84;100.00
79138;BME280;68544;45.566;10.238;2024-01-07T02:23:32;60991.41;;;-142.84;100.00
79138;BME280;68544;45.566;10.238;2024-01-07T02:25:57;60991.41;;;-142.84;100.00
79138;BME280;68544;45.566;10.238;2024-01-07T02:28:23;60991.41;;;-142.84;100.00
79138;BME280;68544;45.566;10.238;2024-01-07T02:30:48;60991.41;;;-142.84;100.00
79138;BME280;68544;45.566;10.238;2024-01-07T02:33:14;60991.41;;;-142.84;100.00
79138;BME280;68544;45.566;10.238;2024-01-07T02:35:39;60991.41;;;-142.84;100.00
79138;BME280;68544;45.566;10.238;2024-01-07T02:38:05;60991.41;;;-142.84;100.00
79138;BME280;68544;45.566;10.238;2024-01-07T02:40:30;60991.41;;;-142.84;100.00
79138;BME280;68544;45.566;10.238;2024-01-07T02:42:56;60991.41;;;-142.84;100.00
79138;BME280;68544;45.566;10.238;2024-01-07T02:45:22;60991.41;;;-142.84;100.00
79138;BME280;68544;45.566;10.238;2024-01-07T02:47:47;60991.41;;;-142.84;100.00
79138;BME280;68544;45.566;10.238;2024-01-07T02:50:13;60991.41;;;-142.84;100.00
79138;BME280;68544;45.566;10.238;2024-01-07T02:52:38;60991.41;;;-142.84;100.00
79138;BME280;68544;45.566;10.238;2024-01-07T02:55:04;60991.41;;;-142.84;100.00
79138;BME280;68544;45.566;10.238;2024-01-07T02:57:29;60991.41;;;-142.84;100.00
79138;BME280;68544;45.566;10.238;2024-01-07T02:59:55;60991.41;;;-142.84;100.00
79138;BME280;68544;45.566;10.238;2024-01-07T03:02:20;60991.41;;;-142.84;100.00
79138;BME280;68544;45.566;10.238;2024-01-07T03:04:45;60991.41;;;-142.84;100.00
79138;BME280;68544;45.566;10.238;2024-01-07T03:07:11;60991.41;;;-142.84;100.00
79138;BME280;68544;45.566;10.238;2024-01-07T03:09:36;60991.41;;;-142.84;100.00
79138;BME280;68544;45.566;10.238;2024-01-07T03:12:02;60991.41;;;-142.84;100.00
79138;BME280;68544;45.566;10.238;2024-01-07T03:14:27;60991.41;;;-142.84;100.00
79138;BME280;68544;45.566;10.238;2024-01-07T03:16:53;60991.41;;;-142.84;100.00
79138;BME280;68544;45.566;10.238;2024-01-07T03:19:18;60991.41;;;-142.84;100.00
79138;BME280;68544;45.566;10.238;2024-01-07T03:21:44;60991.41;;;-142.84;100.00
79138;BME280;68544;45.566;10.238;2024-01-07T03:24:10;60991.41;;;-142.84;100.00
79138;BME280;68544;45.566;10.238;2024-01-07T03:26:35;60991.41;;;-142.84;100.00
79138;BME280;68544;45.566;10.238;2024-01-07T03:29:01;60991.41;;;-142.84;100.00
79138;BME280;68544;45.566;10.238;2024-01-07T03:31:27;60991.41;;;-142.84;100.00
79138;BME280;68544;45.566;10.238;2024-01-07T03:33:53;60991.41;;;-142.84;100.00
79138;BME280;68544;45.566;10.238;2024-01-07T03:36:19;60991.41;;;-142.84;100.00
79138;BME280;68544;45.566;10.238;2024-01-07T03:38:44;60991.41;;;-142.84;100.00
79138;BME280;68544;45.566;10.238;2024-01-07T03:41:16;60991.41;;;-142.84;100.00
79138;BME280;68544;45.566;10.238;2024-01-07T03:43:43;60991.41;;;-142.84;100.00
79138;BME280;68544;45.566;10.238;2024-01-07T03:46:08;60991.41;;;-142.84;100.00
79138;BME280;68544;45.566;10.238;2024-01-07T03:48:33;60991.41;;;-142.84;100.00
79138;BME280;68544;45.566;10.238;2024-01-07T03:50:59;60991.41;;;-142.84;100.00
79138;BME280;68544;45.566;10.238;2024-01-07T03:53:24;60991.41;;;-142.84;100.00
79138;BME280;68544;45.566;10.238;2024-01-07T03:55:50;60991.41;;;-142.84;100.00
79138;BME280;68544;45.566;10.238;2024-01-07T03:58:15;60991.41;;;-142.84;100.00
79138;BME280;68544;45.566;10.238;2024-01-07T04:00:41;60991.41;;;-142.84;100.00
79138;BME280;68544;45.566;10.238;2024-01-07T04:03:06;60991.41;;;-142.84;100.00
79138;BME280;68544;45.566;10.238;2024-01-07T04:05:31;60991.41;;;-142.84;100.00
79138;BME280;68544;45.566;10.238;2024-01-07T04:08:00;60991.41;;;-142.84;100.00
79138;BME280;68544;45.566;10.238;2024-01-07T04:10:25;60991.41;;;-142.84;100.00
79138;BME280;68544;45.566;10.238;2024-01-07T04:12:50;60991.41;;;-142.84;100.00
79138;BME280;68544;45.566;10.238;2024-01-07T04:15:16;60991.41;;;-142.84;100.00
79138;BME280;68544;45.566;10.238;2024-01-07T04:17:41;60991.41;;;-142.84;100.00
79138;BME280;68544;45.566;10.238;2024-01-07T04:20:08;60991.41;;;-142.84;100.00
79138;BME280;68544;45.566;10.238;2024-01-07T04:22:33;60991.41;;;-142.84;100.00
79138;BME280;68544;45.566;10.238;2024-01-07T04:24:58;60991.41;;;-142.84;100.00
79138;BME280;68544;45.566;10.238;2024-01-07T04:27:24;60991.41;;;-142.84;100.00
79138;BME280;68544;45.566;10.238;2024-01-07T04:29:52;60991.41;;;-142.84;100.00
79138;BME280;68544;45.566;10.238;2024-01-07T04:32:17;60991.41;;;-142.84;100.00
79138;BME280;68544;45.566;10.238;2024-01-07T04:34:43;60991.41;;;-142.84;100.00
79138;BME280;68544;45.566;10.238;2024-01-07T04:37:08;60991.41;;;-142.84;100.00
79138;BME280;68544;45.566;10.238;2024-01-07T04:39:34;60991.41;;;-142.84;100.00
79138;BME280;68544;45.566;10.238;2024-01-07T04:41:59;60991.41;;;-142.84;100.00
79138;BME280;68544;45.566;10.238;2024-01-07T04:44:25;60991.41;;;-142.84;100.00
79138;BME280;68544;45.566;10.238;2024-01-07T04:46:50;60991.41;;;-142.84;100.00
79138;BME280;68544;45.566;10.238;2024-01-07T04:49:15;60991.41;;;-142.84;100.00
79138;BME280;68544;45.566;10.238;2024-01-07T04:51:41;60991.41;;;-142.84;100.00
79138;BME280;68544;45.566;10.238;2024-01-07T04:54:06;60991.41;;;-142.84;100.00
79138;BME280;68544;45.566;10.238;2024-01-07T04:56:32;60991.41;;;-142.84;100.00
79138;BME280;68544;45.566;10.238;2024-01-07T04:58:57;60991.41;;;-142.84;100.00
79138;BME280;68544;45.566;10.238;2024-01-07T05:01:23;60991.41;;;-142.84;100.00
79138;BME280;68544;45.566;10.238;2024-01-07T05:03:48;60991.41;;;-142.84;100.00
79138;BME280;68544;45.566;10.238;2024-01-07T05:06:14;60991.41;;;-142.84;100.00
79138;BME280;68544;45.566;10.238;2024-01-07T05:08:40;60991.41;;;-142.84;100.00
79138;BME280;68544;45.566;10.238;2024-01-07T05:11:06;60991.41;;;-142.84;100.00
79138;BME280;68544;45.566;10.238;2024-01-07T05:13:32;60991.41;;;-142.84;100.00
79138;BME280;68544;45.566;10.238;2024-01-07T05:15:57;60991.41;;;-142.84;100.00
79138;BME280;68544;45.566;10.238;2024-01-07T05:18:23;60991.41;;;-142.84;100.00
79138;BME280;68544;45.566;10.238;2024-01-07T05:20:49;60991.41;;;-142.84;100.00
79138;BME280;68544;45.566;10.238;2024-01-07T05:23:15;60991.41;;;-142.84;100.00
79138;BME280;68544;45.566;10.238;2024-01-07T05:25:45;60991.41;;;-142.84;100.00
79138;BME280;68544;45.566;10.238;2024-01-07T05:28:11;60991.41;;;-142.84;100.00
79138;BME280;68544;45.566;10.238;2024-01-07T05:30:38;60991.41;;;-142.84;100.00
79138;BME280;68544;45.566;10.238;2024-01-07T05:33:03;60991.41;;;-142.84;100.00
79138;BME280;68544;45.566;10.238;2024-01-07T05:35:29;60991.41;;;-142.84;100.00
79138;BME280;68544;45.566;10.238;2024-01-07T05:37:55;60991.41;;;-142.84;100.00
79138;BME280;68544;45.566;10.238;2024-01-07T05:40:21;60991.41;;;-142.84;100.00
79138;BME280;68544;45.566;10.238;2024-01-07T05:42:46;60991.41;;;-142.84;100.00
79138;BME280;68544;45.566;10.238;2024-01-07T05:45:12;60991.41;;;-142.84;100.00
79138;BME280;68544;45.566;10.238;2024-01-07T05:47:37;60991.41;;;-142.84;100.00
79138;BME280;68544;45.566;10.238;2024-01-07T05:50:02;60991.41;;;-142.84;100.00
79138;BME280;68544;45.566;10.238;2024-01-07T05:52:28;60991.41;;;-142.84;100.00
79138;BME280;68544;45.566;10.238;2024-01-07T05:54:53;60991.41;;;-142.84;100.00
79138;BME280;68544;45.566;10.238;2024-01-07T05:57:19;60991.41;;;-142.84;100.00
79138;BME280;68544;45.566;10.238;2024-01-07T05:59:45;60991.41;;;-142.84;100.00
79138;BME280;68544;45.566;10.238;2024-01-07T06:02:11;60991.41;;;-142.84;100.00
79138;BME280;68544;45.566;10.238;2024-01-07T06:04:37;60991.41;;;-142.84;100.00
79138;BME280;68544;45.566;10.238;2024-01-07T06:07:03;60991.41;;;-142.84;100.00
79138;BME280;68544;45.566;10.238;2024-01-07T06:09:29;60991.41;;;-142.84;100.00
79138;BME280;68544;45.566;10.238;2024-01-07T06:11:54;60991.41;;;-142.84;100.00
79138;BME280;68544;45.566;10.238;2024-01-07T06:14:21;60991.41;;;-142.84;100.00
79138;BME280;68544;45.566;10.238;2024-01-07T06:16:46;60991.41;;;-142.84;100.00
79138;BME280;68544;45.566;10.238;2024-01-07T06:19:12;60991.41;;;-142.84;100.00
79138;BME280;68544;45.566;10.238;2024-01-07T06:21:37;60991.41;;;-142.84;100.00
79138;BME280;68544;45.566;10.238;2024-01-07T06:24:03;60991.41;;;-142.84;100.00
79138;BME280;68544;45.566;10.238;2024-01-07T06:26:29;60991.41;;;-142.84;100.00
79138;BME280;68544;45.566;10.238;2024-01-07T06:28:54;60991.41;;;-142.84;100.00
79138;BME280;68544;45.566;10.238;2024-01-07T06:31:20;60991.41;;;-142.84;100.00
79138;BME280;68544;45.566;10.238;2024-01-07T06:33:45;60991.41;;;-142.84;100.00
79138;BME280;68544;45.566;10.238;2024-01-07T06:36:11;60991.41;;;-142.84;100.00
79138;BME280;68544;45.566;10.238;2024-01-07T06:38:36;60991.41;;;-142.84;100.00
79138;BME280;68544;45.566;10.238;2024-01-07T06:41:01;60991.41;;;-142.84;100.00
79138;BME280;68544;45.566;10.238;2024-01-07T06:43:29;60991.41;;;-142.84;100.00
79138;BME280;68544;45.566;10.238;2024-01-07T06:45:55;60991.41;;;-142.84;100.00
79138;BME280;68544;45.566;10.238;2024-01-07T06:48:20;60991.41;;;-142.84;100.00
79138;BME280;68544;45.566;10.238;2024-01-07T06:50:46;60991.41;;;-142.84;100.00
79138;BME280;68544;45.566;10.238;2024-01-07T06:53:11;60991.41;;;-142.84;100.00
79138;BME280;68544;45.566;10.238;2024-01-07T06:55:37;60991.41;;;-142.84;100.00
79138;BME280;68544;45.566;10.238;2024-01-07T06:58:02;60991.41;;;-142.84;100.00
79138;BME280;68544;45.566;10.238;2024-01-07T07:00:28;60991.41;;;-142.84;100.00
79138;BME280;68544;45.566;10.238;2024-01-07T07:02:53;60991.41;;;-142.84;100.00
79138;BME280;68544;45.566;10.238;2024-01-07T07:05:19;60991.41;;;-142.84;100.00
79138;BME280;68544;45.566;10.238;2024-01-07T07:07:44;60991.41;;;-142.84;100.00
79138;BME280;68544;45.566;10.238;2024-01-07T07:10:10;60991.41;;;-142.84;100.00
79138;BME280;68544;45.566;10.238;2024-01-07T07:12:36;60991.41;;;-142.84;100.00
79138;BME280;68544;45.566;10.238;2024-01-07T07:15:01;60991.41;;;-142.84;100.00
79138;BME280;68544;45.566;10.238;2024-01-07T07:17:27;60991.41;;;-142.84;100.00
79138;BME280;68544;45.566;10.238;2024-01-07T07:19:52;60991.41;;;-142.84;100.00
79138;BME280;68544;45.566;10.238;2024-01-07T07:22:17;60991.41;;;-142.84;100.00
79138;BME280;68544;45.566;10.238;2024-01-07T07:24:43;60991.41;;;-142.84;100.00
79138;BME280;68544;45.566;10.238;2024-01-07T07:27:08;60991.41;;;-142.84;100.00
79138;BME280;68544;45.566;10.238;2024-01-07T07:29:34;60991.41;;;-142.84;100.00
79138;BME280;68544;45.566;10.238;2024-01-07T07:31:59;60991.41;;;-142.84;100.00
79138;BME280;68544;45.566;10.238;2024-01-07T07:34:24;60991.41;;;-142.84;100.00
79138;BME280;68544;45.566;10.238;2024-01-07T07:36:50;60991.41;;;-142.84;100.00
79138;BME280;68544;45.566;10.238;2024-01-07T07:39:15;60991.41;;;-142.84;100.00
79138;BME280;68544;45.566;10.238;2024-01-07T07:41:41;60991.41;;;-142.84;100.00
79138;BME280;68544;45.566;10.238;2024-01-07T07:44:06;60991.41;;;-142.84;100.00
79138;BME280;68544;45.566;10.238;2024-01-07T07:46:32;60991.41;;;-142.84;100.00
79138;BME280;68544;45.566;10.238;2024-01-07T07:48:57;60991.41;;;-142.84;100.00
79138;BME280;68544;45.566;10.238;2024-01-07T07:51:23;60991.41;;;-142.84;100.00
79138;BME280;68544;45.566;10.238;2024-01-07T07:53:48;60991.41;;;-142.84;100.00
79138;BME280;68544;45.566;10.238;2024-01-07T07:56:14;60991.41;;;-142.84;100.00
79138;BME280;68544;45.566;10.238;2024-01-07T07:58:39;60991.41;;;-142.84;100.00
79138;BME280;68544;45.566;10.238;2024-01-07T08:01:05;60991.41;;;-142.84;100.00
79138;BME280;68544;45.566;10.238;2024-01-07T08:03:31;60991.41;;;-142.84;100.00
79138;BME280;68544;45.566;10.238;2024-01-07T08:05:57;60991.41;;;-142.84;100.00
79138;BME280;68544;45.566;10.238;2024-01-07T08:08:22;60991.41;;;-142.84;100.00
79138;BME280;68544;45.566;10.238;2024-01-07T08:10:47;60991.41;;;-142.84;100.00
79138;BME280;68544;45.566;10.238;2024-01-07T08:13:13;60991.41;;;-142.84;100.00
79138;BME280;68544;45.566;10.238;2024-01-07T08:15:39;60991.41;;;-142.84;100.00
79138;BME280;68544;45.566;10.238;2024-01-07T08:18:04;60991.41;;;-142.84;100.00
79138;BME280;68544;45.566;10.238;2024-01-07T08:20:30;60991.41;;;-142.84;100.00
79138;BME280;68544;45.566;10.238;2024-01-07T08:22:56;60991.41;;;-142.84;100.00
79138;BME280;68544;45.566;10.238;2024-01-07T08:25:21;60991.41;;;-142.84;100.00
79138;BME280;68544;45.566;10.238;2024-01-07T08:27:48;60991.41;;;-142.84;100.00
79138;BME280;68544;45.566;10.238;2024-01-07T08:30:14;60991.41;;;-142.84;100.00
79138;BME280;68544;45.566;10.238;2024-01-07T08:32:40;60991.41;;;-142.84;100.00
79138;BME280;68544;45.566;10.238;2024-01-07T08:35:06;60991.41;;;-142.84;100.00
79138;BME280;68544;45.566;10.238;2024-01-07T08:37:31;60991.41;;;-142.84;100.00
79138;BME280;68544;45.566;10.238;2024-01-07T08:39:58;60991.41;;;-142.84;100.00
79138;BME280;68544;45.566;10.238;2024-01-07T08:42:23;60991.41;;;-142.84;100.00
79138;BME280;68544;45.566;10.238;2024-01-07T08:44:49;60991.41;;;-142.84;100.00
79138;BME280;68544;45.566;10.238;2024-01-07T08:47:15;60991.41;;;-142.84;100.00
79138;BME280;68544;45.566;10.238;2024-01-07T08:49:40;60991.41;;;-142.84;100.00
79138;BME280;68544;45.566;10.238;2024-01-07T08:52:06;60991.41;;;-142.84;100.00
79138;BME280;68544;45.566;10.238;2024-01-07T08:54:31;60991.41;;;-142.84;100.00
79138;BME280;68544;45.566;10.238;2024-01-07T08:56:58;60991.41;;;-142.84;100.00
79138;BME280;68544;45.566;10.238;2024-01-07T08:59:23;60991.41;;;-142.84;100.00
79138;BME280;68544;45.566;10.238;2024-01-07T09:01:49;98288.81;;;11.40;100.00
79138;BME280;68544;45.566;10.238;2024-01-07T09:04:14;98280.09;;;11.15;100.00
79138;BME280;68544;45.566;10.238;2024-01-07T09:06:41;98283.44;;;10.98;100.00
79138;BME280;68544;45.566;10.238;2024-01-07T09:09:07;98274.53;;;11.09;100.00
79138;BME280;68544;45.566;10.238;2024-01-07T09:11:33;98283.47;;;11.22;100.00
79138;BME280;68544;45.566;10.238;2024-01-07T09:13:59;98292.44;;;11.45;100.00
79138;BME280;68544;45.566;10.238;2024-01-07T09:16:25;98284.63;;;11.02;100.00
79138;BME280;68544;45.566;10.238;2024-01-07T09:18:50;98296.50;;;11.13;100.00
79138;BME280;68544;45.566;10.238;2024-01-07T09:21:16;98290.44;;;11.41;100.00
79138;BME280;68544;45.566;10.238;2024-01-07T09:23:41;98299.47;;;11.46;100.00
79138;BME280;68544;45.566;10.238;2024-01-07T09:26:08;98303.94;;;11.64;100.00
79138;BME280;68544;45.566;10.238;2024-01-07T09:28:34;98290.47;;;11.75;100.00
79138;BME280;68544;45.566;10.238;2024-01-07T09:30:59;98298.31;;;11.54;100.00
79138;BME280;68544;45.566;10.238;2024-01-07T09:33:24;98292.78;;;11.37;100.00
79138;BME280;68544;45.566;10.238;2024-01-07T09:35:50;98279.25;;;11.49;100.00
79138;BME280;68544;45.566;10.238;2024-01-07T09:38:16;98298.66;;;11.34;100.00
79138;BME280;68544;45.566;10.238;2024-01-07T09:40:41;98304.53;;;11.31;100.00
79138;BME280;68544;45.566;10.238;2024-01-07T09:43:07;98302.31;;;11.40;100.00
79138;BME280;68544;45.566;10.238;2024-01-07T09:45:36;98312.53;;;11.38;100.00
79138;BME280;68544;45.566;10.238;2024-01-07T09:48:02;98302.03;;;11.30;100.00
79138;BME280;68544;45.566;10.238;2024-01-07T09:50:27;98305.72;;;11.58;100.00
79138;BME280;68544;45.566;10.238;2024-01-07T09:52:56;98285.38;;;11.67;100.00
79138;BME280;68544;45.566;10.238;2024-01-07T09:55:33;98299.13;;;11.66;100.00
79138;BME280;68544;45.566;10.238;2024-01-07T09:57:58;98284.22;;;11.52;100.00
79138;BME280;68544;45.566;10.238;2024-01-07T10:00:26;98299.81;;;11.61;100.00
79138;BME280;68544;45.566;10.238;2024-01-07T10:02:53;98317.22;;;11.54;100.00
79138;BME280;68544;45.566;10.238;2024-01-07T10:05:18;98296.41;;;11.43;100.00
79138;BME280;68544;45.566;10.238;2024-01-07T10:07:44;98311.59;;;11.44;100.00
79138;BME280;68544;45.566;10.238;2024-01-07T10:10:16;98314.88;;;11.57;100.00
79138;BME280;68544;45.566;10.238;2024-01-07T10:12:44;98304.66;;;11.48;100.00
79138;BME280;68544;45.566;10.238;2024-01-07T10:15:11;98321.34;;;11.45;100.00
79138;BME280;68544;45.566;10.238;2024-01-07T10:17:36;98317.09;;;11.49;100.00
79138;BME280;68544;45.566;10.238;2024-01-07T10:20:04;98317.56;;;11.57;100.00
79138;BME280;68544;45.566;10.238;2024-01-07T10:22:30;98319.84;;;11.72;100.00
79138;BME280;68544;45.566;10.238;2024-01-07T10:24:56;98319.44;;;11.57;100.00
79138;BME280;68544;45.566;10.238;2024-01-07T10:27:23;98300.78;;;11.55;100.00
79138;BME280;68544;45.566;10.238;2024-01-07T10:29:50;98311.59;;;11.55;100.00
79138;BME280;68544;45.566;10.238;2024-01-07T10:32:15;98313.59;;;11.60;100.00
79138;BME280;68544;45.566;10.238;2024-01-07T10:34:44;98297.25;;;11.55;100.00
79138;BME280;68544;45.566;10.238;2024-01-07T10:37:12;98300.44;;;11.52;100.00
79138;BME280;68544;45.566;10.238;2024-01-07T10:39:38;98306.41;;;11.31;100.00
79138;BME280;68544;45.566;10.238;2024-01-07T10:42:04;98316.63;;;11.29;100.00
79138;BME280;68544;45.566;10.238;2024-01-07T10:44:31;98276.41;;;10.97;100.00
79138;BME280;68544;45.566;10.238;2024-01-07T10:46:57;98307.69;;;11.17;100.00
79138;BME280;68544;45.566;10.238;2024-01-07T10:49:27;98322.06;;;11.52;100.00
79138;BME280;68544;45.566;10.238;2024-01-07T10:52:03;98309.22;;;11.47;100.00
79138;BME280;68544;45.566;10.238;2024-01-07T10:54:33;98312.75;;;11.48;100.00
79138;BME280;68544;45.566;10.238;2024-01-07T10:57:01;98280.31;;;11.36;100.00
79138;BME280;68544;45.566;10.238;2024-01-07T10:59:30;98317.78;;;11.44;100.00
79138;BME280;68544;45.566;10.238;2024-01-07T11:01:57;98315.22;;;11.49;100.00
79138;BME280;68544;45.566;10.238;2024-01-07T11:04:40;98319.22;;;11.47;100.00
79138;BME280;68544;45.566;10.238;2024-01-07T11:10:02;98311.13;;;11.70;100.00
79138;BME280;68544;45.566;10.238;2024-01-07T11:12:31;98309.34;;;11.64;100.00
79138;BME280;68544;45.566;10.238;2024-01-07T11:14:56;98265.41;;;11.45;100.00
79138;BME280;68544;45.566;10.238;2024-01-07T11:20:05;98299.28;;;11.71;100.00
79138;BME280;68544;45.566;10.238;2024-01-07T11:22:31;98307.94;;;11.50;100.00
79138;BME280;68544;45.566;10.238;2024-01-07T11:24:59;98293.03;;;11.70;100.00
79138;BME280;68544;45.566;10.238;2024-01-07T11:27:31;98298.44;;;11.70;100.00
79138;BME280;68544;45.566;10.238;2024-01-07T11:30:07;98293.63;;;11.61;100.00
79138;BME280;68544;45.566;10.238;2024-01-07T11:32:34;98292.06;;;11.53;100.00
79138;BME280;68544;45.566;10.238;2024-01-07T11:35:00;98304.53;;;11.54;100.00
79138;BME280;68544;45.566;10.238;2024-01-07T11:37:26;98296.31;;;11.61;100.00
79138;BME280;68544;45.566;10.238;2024-01-07T11:39:55;98290.59;;;11.69;100.00
79138;BME280;68544;45.566;10.238;2024-01-07T11:42:23;98288.44;;;11.82;100.00
79138;BME280;68544;45.566;10.238;2024-01-07T11:44:53;98288.56;;;11.76;100.00
79138;BME280;68544;45.566;10.238;2024-01-07T11:47:20;98300.22;;;11.88;100.00
79138;BME280;68544;45.566;10.238;2024-01-07T11:49:46;98295.53;;;12.23;100.00
79138;BME280;68544;45.566;10.238;2024-01-07T11:52:12;98285.19;;;12.20;100.00
79138;BME280;68544;45.566;10.238;2024-01-07T11:54:38;98285.38;;;12.42;100.00
79138;BME280;68544;45.566;10.238;2024-01-07T11:57:07;98273.03;;;12.34;100.00
79138;BME280;68544;45.566;10.238;2024-01-07T11:59:34;98292.84;;;12.51;100.00
79138;BME280;68544;45.566;10.238;2024-01-07T12:02:00;98294.91;;;12.44;100.00
79138;BME280;68544;45.566;10.238;2024-01-07T12:04:25;98287.34;;;12.46;100.00
79138;BME280;68544;45.566;10.238;2024-01-07T12:06:51;98284.66;;;12.46;100.00
79138;BME280;68544;45.566;10.238;2024-01-07T12:09:16;98281.81;;;12.53;100.00
79138;BME280;68544;45.566;10.238;2024-01-07T12:11:42;98294.94;;;12.61;100.00
79138;BME280;68544;45.566;10.238;2024-01-07T12:14:08;98291.78;;;12.52;100.00
79138;BME280;68544;45.566;10.238;2024-01-07T12:16:35;98297.16;;;12.64;100.00
79138;BME280;68544;45.566;10.238;2024-01-07T12:19:00;98289.84;;;12.64;100.00
79138;BME280;68544;45.566;10.238;2024-01-07T12:21:26;98284.41;;;12.76;100.00
79138;BME280;68544;45.566;10.238;2024-01-07T12:23:54;98285.81;;;12.79;100.00
79138;BME280;68544;45.566;10.238;2024-01-07T12:26:19;98291.44;;;12.77;100.00